Time;durP1;ratioP1;P1;durP2;ratioP2;P2;SDS_P1;SDS_P2;PMS_P1;PMS_P2;Temp;Humidity;BMP_temperature;BMP_pressure;BME280_temperature;BME280_humidity;BME280_pressure;Samples;Min_cycle;Max_cycle;Signal;HPM_P1;HPM_P2
2023/04/26 00:01:04;;;;;;;4.87;1.40;;;5.30;99.90;;;;;;5088140;28;20218;-70
2023/04/26 00:03:31;;;;;;;4.43;1.40;;;5.30;99.90;;;;;;5088633;28;20203;-70
2023/04/26 00:06:02;;;;;;;2.33;1.27;;;5.40;99.90;;;;;;5120820;27;20237;-69
2023/04/26 00:08:30;;;;;;;4.80;2.17;;;5.40;99.90;;;;;;5129000;27;20295;-70
2023/04/26 00:10:57;;;;;;;4.60;1.30;;;5.60;99.90;;;;;;5128498;27;20767;-70
2023/04/26 00:13:24;;;;;;;4.07;1.50;;;5.50;99.90;;;;;;5113504;27;20293;-70
2023/04/26 00:15:51;;;;;;;6.53;1.57;;;5.40;99.90;;;;;;5107831;28;20209;-69
2023/04/26 00:18:18;;;;;;;3.03;1.37;;;5.30;99.90;;;;;;5108284;28;20617;-69
2023/04/26 00:20:45;;;;;;;5.23;1.80;;;5.30;99.90;;;;;;5105711;28;20293;-70
2023/04/26 00:23:12;;;;;;;5.47;1.60;;;5.20;99.90;;;;;;5097431;28;20751;-69
2023/04/26 00:25:42;;;;;;;4.50;1.07;;;5.10;99.90;;;;;;5102135;28;20272;-69
2023/04/26 00:28:09;;;;;;;4.67;1.87;;;5.00;99.90;;;;;;5114151;27;20304;-69
2023/04/26 00:30:40;;;;;;;4.90;1.33;;;4.90;99.90;;;;;;5110501;27;20735;-71
2023/04/26 00:33:06;;;;;;;5.67;2.03;;;4.90;99.90;;;;;;5105796;28;20196;-70
2023/04/26 00:35:33;;;;;;;2.83;1.30;;;5.00;99.90;;;;;;5107831;28;20305;-70
2023/04/26 00:38:00;;;;;;;3.57;1.17;;;4.90;99.90;;;;;;5107913;28;20238;-70
2023/04/26 00:40:27;;;;;;;4.03;1.23;;;4.90;99.90;;;;;;5107761;28;20217;-70
2023/04/26 00:42:59;;;;;;;5.87;1.47;;;4.90;99.90;;;;;;5094201;28;20231;-70
2023/04/26 00:45:26;;;;;;;6.53;1.80;;;4.80;99.90;;;;;;5087764;28;20215;-70
2023/04/26 00:47:53;;;;;;;5.27;1.53;;;4.80;99.90;;;;;;5087634;28;20206;-70
2023/04/26 00:50:21;;;;;;;4.57;1.60;;;4.90;99.90;;;;;;5087564;28;20647;-70
2023/04/26 00:52:49;;;;;;;5.70;1.50;;;4.80;99.90;;;;;;5087417;28;20291;-70
2023/04/26 00:55:16;;;;;;;2.53;1.10;;;4.70;99.90;;;;;;5086648;28;20231;-70
2023/04/26 00:57:45;;;;;;;2.93;1.30;;;4.80;99.90;;;;;;5087468;28;20210;-70
2023/04/26 01:00:15;;;;;;;4.67;1.60;;;4.80;99.90;;;;;;5102149;28;20301;-70
2023/04/26 01:02:42;;;;;;;3.60;1.50;;;4.70;99.90;;;;;;5107126;28;20312;-70
2023/04/26 01:05:09;;;;;;;3.60;1.43;;;4.80;99.90;;;;;;5107481;28;20618;-70
2023/04/26 01:07:37;;;;;;;4.00;1.70;;;4.80;99.90;;;;;;5107384;27;20217;-70
2023/04/26 01:10:05;;;;;;;5.43;1.50;;;4.80;99.90;;;;;;5107469;28;20216;-70
2023/04/26 01:12:32;;;;;;;3.13;1.40;;;4.70;99.90;;;;;;5097175;28;20199;-70
2023/04/26 01:15:00;;;;;;;7.37;1.90;;;4.60;99.90;;;;;;5092596;28;20205;-70
2023/04/26 01:17:29;;;;;;;3.83;1.47;;;4.60;99.90;;;;;;5087195;28;20357;-70
2023/04/26 01:19:56;;;;;;;7.53;1.73;;;4.50;99.90;;;;;;5089352;28;20625;-72
2023/04/26 01:22:23;;;;;;;3.30;1.70;;;4.40;99.90;;;;;;5104654;28;20199;-72
2023/04/26 01:24:54;;;;;;;5.00;1.50;;;4.40;99.90;;;;;;5108461;27;20203;-70
2023/04/26 01:27:21;;;;;;;6.73;1.30;;;4.40;99.90;;;;;;5086917;28;20317;-70
2023/04/26 01:29:48;;;;;;;3.07;1.40;;;4.30;99.90;;;;;;5098032;28;20705;-70
2023/04/26 01:32:15;;;;;;;3.57;2.00;;;4.30;99.90;;;;;;5107127;28;20202;-70
2023/04/26 01:34:42;;;;;;;5.90;1.60;;;4.20;99.90;;;;;;5106550;28;20252;-70
2023/04/26 01:37:09;;;;;;;3.80;1.47;;;4.20;99.90;;;;;;5106818;28;20241;-70
2023/04/26 01:39:36;;;;;;;4.33;1.43;;;4.30;99.90;;;;;;5107006;28;20208;-70
2023/04/26 01:42:05;;;;;;;3.37;1.33;;;4.30;99.90;;;;;;5106441;28;20297;-70
2023/04/26 01:44:32;;;;;;;3.43;1.23;;;4.50;99.90;;;;;;5106808;28;20630;-70
2023/04/26 01:46:59;;;;;;;5.27;1.33;;;4.40;99.90;;;;;;5106648;27;20234;-70
2023/04/26 01:49:26;;;;;;;2.17;1.23;;;4.40;99.90;;;;;;5106401;28;20237;-70
2023/04/26 01:51:52;;;;;;;3.83;1.50;;;4.40;99.90;;;;;;5106383;28;20547;-70
2023/04/26 01:54:20;;;;;;;3.77;1.60;;;4.40;99.90;;;;;;5105705;28;20225;-70
2023/04/26 01:56:47;;;;;;;6.03;1.33;;;4.40;99.90;;;;;;5088431;28;20702;-69
2023/04/26 01:59:15;;;;;;;3.77;1.20;;;4.40;99.90;;;;;;5120061;27;20210;-70
2023/04/26 02:01:43;;;;;;;5.97;1.47;;;4.30;99.90;;;;;;5106705;28;20309;-70
2023/04/26 02:04:10;;;;;;;4.13;1.27;;;4.30;99.90;;;;;;5106864;28;20206;-71
2023/04/26 02:06:37;;;;;;;6.63;1.50;;;4.30;99.90;;;;;;5085534;28;20954;-71
2023/04/26 02:09:04;;;;;;;4.37;1.30;;;4.40;99.90;;;;;;5086085;28;20225;-71
2023/04/26 02:11:31;;;;;;;4.80;1.50;;;4.40;99.90;;;;;;5085741;28;20242;-71
2023/04/26 02:13:58;;;;;;;4.80;1.60;;;4.40;99.90;;;;;;5085914;28;20297;-72
2023/04/26 02:16:27;;;;;;;5.80;1.73;;;4.30;99.90;;;;;;5085706;28;20238;-70
2023/04/26 02:18:54;;;;;;;3.80;1.40;;;4.20;99.90;;;;;;5098730;28;20208;-70
2023/04/26 02:21:22;;;;;;;3.10;1.20;;;4.30;99.90;;;;;;5105622;28;20210;-71
2023/04/26 02:23:49;;;;;;;2.70;1.03;;;4.20;99.90;;;;;;5102392;28;20739;-70
2023/04/26 02:26:16;;;;;;;3.30;1.50;;;4.20;99.90;;;;;;5085663;28;20262;-70
2023/04/26 02:28:43;;;;;;;3.13;1.27;;;4.10;99.90;;;;;;5088163;28;20286;-70
2023/04/26 02:31:10;;;;;;;8.97;1.80;;;4.10;99.90;;;;;;5083684;28;20754;-69
2023/04/26 02:33:38;;;;;;;3.63;1.77;;;4.10;99.90;;;;;;5084295;28;20248;-70
2023/04/26 02:36:06;;;;;;;7.77;1.77;;;4.10;99.90;;;;;;5083834;28;20704;-70
2023/04/26 02:38:35;;;;;;;5.37;1.30;;;4.00;99.90;;;;;;5083913;28;20303;-70
2023/04/26 02:41:03;;;;;;;3.33;1.53;;;3.90;99.90;;;;;;5084017;28;20233;-70
2023/04/26 02:43:30;;;;;;;5.43;1.50;;;4.00;99.90;;;;;;5102851;28;20285;-70
2023/04/26 02:45:59;;;;;;;3.93;1.67;;;3.90;99.90;;;;;;5089615;28;20206;-70
2023/04/26 02:48:26;;;;;;;2.77;1.50;;;3.90;99.90;;;;;;5083591;28;20687;-70
2023/04/26 02:50:55;;;;;;;5.20;1.40;;;3.90;99.90;;;;;;5083541;28;20210;-70
2023/04/26 02:53:22;;;;;;;4.13;1.40;;;3.90;99.90;;;;;;5099298;28;20309;-70
2023/04/26 02:55:50;;;;;;;5.87;1.97;;;3.90;99.90;;;;;;5084527;28;20242;-69
2023/04/26 02:58:17;;;;;;;4.63;1.67;;;3.90;99.90;;;;;;5095868;28;20281;-69
2023/04/26 03:00:47;;;;;;;5.53;1.63;;;3.80;99.90;;;;;;5094667;28;20217;-69
2023/04/26 03:03:14;;;;;;;4.77;1.70;;;3.90;99.90;;;;;;5104775;28;20206;-69
2023/04/26 03:05:41;;;;;;;3.43;1.30;;;3.90;99.90;;;;;;5105209;28;20210;-69
2023/04/26 03:08:09;;;;;;;5.17;2.00;;;3.80;99.90;;;;;;5105198;28;20244;-69
2023/04/26 03:10:36;;;;;;;5.63;2.00;;;3.80;99.90;;;;;;5105147;28;20353;-69
2023/04/26 03:13:04;;;;;;;8.40;1.87;;;3.80;99.90;;;;;;5105370;28;20321;-69
2023/04/26 03:15:31;;;;;;;6.20;2.13;;;3.80;99.90;;;;;;5105135;28;20791;-69
2023/04/26 03:17:58;;;;;;;5.57;1.83;;;3.70;99.90;;;;;;5105617;28;20214;-69
2023/04/26 03:20:25;;;;;;;4.07;2.13;;;3.70;99.90;;;;;;5109612;28;20205;-69
2023/04/26 03:22:52;;;;;;;4.07;1.90;;;3.60;99.90;;;;;;5109200;28;20311;-69
2023/04/26 03:25:20;;;;;;;6.73;1.90;;;3.60;99.90;;;;;;5109311;28;20213;-69
2023/04/26 03:27:47;;;;;;;2.63;1.60;;;3.60;99.90;;;;;;5109042;28;20704;-69
2023/04/26 03:30:15;;;;;;;7.80;1.60;;;3.60;99.90;;;;;;5109437;28;20631;-69
2023/04/26 03:32:42;;;;;;;4.20;1.80;;;3.60;99.90;;;;;;5108995;28;20335;-68
2023/04/26 03:35:10;;;;;;;3.77;1.60;;;3.60;99.90;;;;;;5108988;28;20210;-69
2023/04/26 03:37:38;;;;;;;5.43;2.70;;;3.60;99.90;;;;;;5109084;28;20249;-69
2023/04/26 03:40:07;;;;;;;13.67;1.90;;;3.60;99.90;;;;;;5108765;28;20206;-69
2023/04/26 03:42:36;;;;;;;9.30;1.50;;;3.60;99.90;;;;;;5109538;28;20210;-69
2023/04/26 03:45:03;;;;;;;2.33;1.70;;;3.50;99.90;;;;;;5109067;28;20217;-69
2023/04/26 03:47:30;;;;;;;5.77;2.20;;;3.50;99.90;;;;;;5109139;28;20236;-69
2023/04/26 03:49:57;;;;;;;8.17;1.90;;;3.40;99.90;;;;;;5101657;27;20217;-69
2023/04/26 03:52:24;;;;;;;3.97;1.40;;;3.40;99.90;;;;;;5088472;28;20203;-69
2023/04/26 03:54:51;;;;;;;4.47;2.00;;;3.40;99.90;;;;;;5088044;28;20229;-69
2023/04/26 03:57:18;;;;;;;7.67;1.77;;;3.40;99.90;;;;;;5099160;27;20287;-69
2023/04/26 03:59:46;;;;;;;4.57;1.90;;;3.50;99.90;;;;;;5117823;27;20306;-69
2023/04/26 04:02:13;;;;;;;5.10;1.80;;;3.50;99.90;;;;;;5108632;28;20260;-69
2023/04/26 04:04:40;;;;;;;4.17;1.77;;;3.40;99.90;;;;;;5108476;28;20205;-69
2023/04/26 04:07:07;;;;;;;5.93;1.90;;;3.50;99.90;;;;;;5108219;28;20601;-69
2023/04/26 04:09:34;;;;;;;6.43;1.90;;;3.50;99.90;;;;;;5108116;28;20297;-69
2023/04/26 04:12:01;;;;;;;4.43;1.77;;;3.50;99.90;;;;;;5108052;27;20330;-69
2023/04/26 04:14:28;;;;;;;3.80;1.90;;;3.50;99.90;;;;;;5108138;28;20217;-70
2023/04/26 04:16:58;;;;;;;6.57;2.37;;;3.50;99.90;;;;;;5108223;28;20650;-69
2023/04/26 04:19:25;;;;;;;3.80;1.67;;;3.40;99.90;;;;;;5108111;28;20346;-69
2023/04/26 04:21:52;;;;;;;3.83;1.67;;;3.40;99.90;;;;;;5108126;28;20302;-69
2023/04/26 04:24:18;;;;;;;14.97;2.40;;;3.50;99.90;;;;;;5108157;28;21059;-69
2023/04/26 04:26:46;;;;;;;5.17;2.37;;;3.50;99.90;;;;;;5108253;28;20556;-69
2023/04/26 04:29:12;;;;;;;3.97;1.83;;;3.50;99.90;;;;;;5101139;28;20305;-69
2023/04/26 04:31:40;;;;;;;6.77;1.93;;;3.50;99.90;;;;;;5086852;28;20282;-69
2023/04/26 04:34:08;;;;;;;6.90;2.30;;;3.60;99.90;;;;;;5087451;28;20211;-69
2023/04/26 04:36:37;;;;;;;4.30;2.07;;;3.60;99.90;;;;;;5087559;28;20206;-69
2023/04/26 04:39:04;;;;;;;5.50;2.00;;;3.60;99.90;;;;;;5087332;28;20213;-69
2023/04/26 04:41:33;;;;;;;6.70;2.03;;;3.70;99.90;;;;;;5087489;28;20207;-69
2023/04/26 04:44:00;;;;;;;6.23;2.27;;;3.60;99.90;;;;;;5087413;28;20228;-69
2023/04/26 04:46:27;;;;;;;3.97;2.03;;;3.60;99.90;;;;;;5105150;27;20731;-69
2023/04/26 04:48:54;;;;;;;6.27;2.10;;;3.70;99.90;;;;;;5128191;27;20229;-69
2023/04/26 04:51:22;;;;;;;2.63;1.57;;;3.70;99.90;;;;;;5128560;27;20247;-69
2023/04/26 04:53:50;;;;;;;3.90;1.83;;;3.70;99.90;;;;;;5127997;27;20510;-69
2023/04/26 04:56:18;;;;;;;7.30;2.07;;;3.70;99.90;;;;;;5116881;27;20202;-69
2023/04/26 04:58:45;;;;;;;7.27;2.10;;;3.80;99.90;;;;;;5106772;28;20216;-69
2023/04/26 05:01:12;;;;;;;6.57;2.43;;;3.80;99.90;;;;;;5107455;28;20300;-69
2023/04/26 05:03:39;;;;;;;7.03;2.17;;;3.80;99.90;;;;;;5107491;28;20305;-69
2023/04/26 05:06:06;;;;;;;2.73;1.77;;;3.90;99.90;;;;;;5107722;28;20206;-69
2023/04/26 05:08:35;;;;;;;5.20;2.33;;;3.80;99.90;;;;;;5107247;27;20236;-69
2023/04/26 05:11:02;;;;;;;5.13;1.60;;;3.90;99.90;;;;;;5106921;28;20312;-69
2023/04/26 05:13:29;;;;;;;5.47;2.40;;;3.80;99.90;;;;;;5107389;28;20259;-69
2023/04/26 05:15:56;;;;;;;6.93;2.47;;;3.90;99.90;;;;;;5106729;28;20388;-69
2023/04/26 05:18:23;;;;;;;2.63;2.03;;;3.90;99.90;;;;;;5107336;28;20330;-69
2023/04/26 05:20:50;;;;;;;5.83;2.07;;;4.00;99.90;;;;;;5106968;28;20298;-69
2023/04/26 05:23:16;;;;;;;5.70;2.03;;;4.00;99.90;;;;;;5107139;28;20214;-69
2023/04/26 05:25:45;;;;;;;3.83;1.90;;;4.00;99.90;;;;;;5107243;28;20287;-69
2023/04/26 05:28:13;;;;;;;6.17;2.27;;;4.00;99.90;;;;;;5107091;28;20240;-69
2023/04/26 05:30:40;;;;;;;3.63;2.27;;;4.00;99.90;;;;;;5088691;28;20211;-69
2023/04/26 05:33:07;;;;;;;5.57;2.17;;;4.10;99.90;;;;;;5086223;28;20740;-69
2023/04/26 05:35:34;;;;;;;7.00;2.30;;;4.10;99.90;;;;;;5085992;28;20656;-69
2023/04/26 05:38:01;;;;;;;5.87;2.20;;;4.20;99.90;;;;;;5086180;28;20294;-69
2023/04/26 05:40:27;;;;;;;5.97;2.20;;;4.20;99.90;;;;;;5086250;28;20301;-69
2023/04/26 05:42:56;;;;;;;4.40;1.80;;;4.20;99.90;;;;;;5087472;28;20208;-69
2023/04/26 05:45:23;;;;;;;4.03;2.10;;;4.30;99.90;;;;;;5086308;28;20721;-69
2023/04/26 05:47:50;;;;;;;4.80;2.40;;;4.40;99.90;;;;;;5086144;28;20258;-69
2023/04/26 05:50:17;;;;;;;5.90;1.97;;;4.40;99.90;;;;;;5104831;27;20254;-69
2023/04/26 05:52:44;;;;;;;7.73;2.17;;;4.50;99.90;;;;;;5126813;27;20731;-69
2023/04/26 05:55:12;;;;;;;8.77;2.13;;;4.60;99.90;;;;;;5126532;27;20313;-69
2023/04/26 05:57:39;;;;;;;3.40;1.93;;;4.60;99.90;;;;;;5115032;27;20202;-69
2023/04/26 06:00:10;;;;;;;5.80;1.80;;;4.70;99.90;;;;;;5119791;27;20563;-69
2023/04/26 06:02:37;;;;;;;4.57;1.67;;;4.70;99.90;;;;;;5126589;27;20203;-69
2023/04/26 06:05:05;;;;;;;4.17;1.90;;;4.60;99.90;;;;;;5118306;27;20296;-69
2023/04/26 06:07:32;;;;;;;4.97;2.10;;;4.70;99.90;;;;;;5106129;27;20244;-69
2023/04/26 06:10:00;;;;;;;6.00;1.97;;;4.80;99.90;;;;;;5106241;28;20210;-69
2023/04/26 06:12:28;;;;;;;4.57;1.90;;;4.80;99.90;;;;;;5106159;28;20800;-69
2023/04/26 06:14:54;;;;;;;4.97;1.90;;;4.90;99.90;;;;;;5106403;28;20556;-69
2023/04/26 06:17:24;;;;;;;8.27;2.00;;;5.00;99.90;;;;;;5106049;28;20244;-69
2023/04/26 06:19:51;;;;;;;9.23;2.27;;;5.00;99.90;;;;;;5106098;28;20209;-69
2023/04/26 06:22:17;;;;;;;5.53;2.00;;;5.10;99.90;;;;;;5103394;27;20325;-69
2023/04/26 06:24:45;;;;;;;6.30;2.13;;;5.10;99.90;;;;;;5085583;28;20669;-69
2023/04/26 06:27:11;;;;;;;3.97;1.93;;;5.00;99.90;;;;;;5085380;28;20206;-70
2023/04/26 06:29:38;;;;;;;3.40;1.57;;;5.10;99.90;;;;;;5095632;28;20670;-69
2023/04/26 06:32:06;;;;;;;4.67;1.80;;;5.10;99.90;;;;;;5105751;28;20575;-69
2023/04/26 06:34:34;;;;;;;4.80;1.90;;;5.20;99.90;;;;;;5106008;28;20296;-69
2023/04/26 06:37:01;;;;;;;4.67;1.43;;;5.30;99.90;;;;;;5105800;28;20210;-69
2023/04/26 06:39:28;;;;;;;3.90;1.97;;;5.30;99.90;;;;;;5105241;28;20206;-69
2023/04/26 06:41:55;;;;;;;7.23;1.93;;;5.40;99.90;;;;;;5105979;28;20202;-69
2023/04/26 06:44:22;;;;;;;11.23;2.30;;;5.40;99.90;;;;;;5105612;28;20206;-73
2023/04/26 06:46:49;;;;;;;2.53;1.60;;;5.60;99.90;;;;;;5094419;28;20325;-69
2023/04/26 06:49:16;;;;;;;5.30;2.03;;;5.60;99.90;;;;;;5085650;28;20363;-69
2023/04/26 06:51:44;;;;;;;6.23;1.97;;;5.60;99.90;;;;;;5085389;28;20206;-69
2023/04/26 06:54:12;;;;;;;4.80;1.90;;;5.70;99.90;;;;;;5087967;28;20237;-69
2023/04/26 06:56:39;;;;;;;2.90;1.60;;;5.80;99.90;;;;;;5089716;28;20195;-69
2023/04/26 06:59:07;;;;;;;6.07;2.03;;;5.90;99.90;;;;;;5094781;28;20325;-69
2023/04/26 07:01:35;;;;;;;5.53;1.63;;;6.00;99.90;;;;;;5109909;28;20398;-69
2023/04/26 07:04:03;;;;;;;3.03;1.77;;;6.00;99.90;;;;;;5109899;28;20286;-69
2023/04/26 07:06:30;;;;;;;8.07;1.90;;;6.10;99.90;;;;;;5109979;28;20202;-69
2023/04/26 07:09:01;;;;;;;7.17;2.00;;;6.10;99.90;;;;;;5109343;28;20328;-69
2023/04/26 07:11:28;;;;;;;5.97;2.03;;;6.10;99.90;;;;;;5109319;28;20252;-69
2023/04/26 07:13:55;;;;;;;5.43;1.97;;;6.10;99.90;;;;;;5109737;28;20300;-69
2023/04/26 07:16:22;;;;;;;5.63;1.83;;;6.20;99.90;;;;;;5109514;28;20205;-69
2023/04/26 07:18:50;;;;;;;8.00;2.27;;;6.20;99.90;;;;;;5109333;28;20306;-69
2023/04/26 07:21:17;;;;;;;5.20;1.70;;;6.20;99.90;;;;;;5109376;28;20661;-69
2023/04/26 07:23:44;;;;;;;7.30;2.53;;;6.30;99.90;;;;;;5108925;27;20298;-69
2023/04/26 07:26:13;;;;;;;5.77;1.80;;;6.30;99.90;;;;;;5108706;27;20292;-69
2023/04/26 07:28:40;;;;;;;3.77;1.80;;;6.40;99.90;;;;;;5109125;28;20315;-69
2023/04/26 07:31:07;;;;;;;6.17;1.83;;;6.50;99.90;;;;;;5109071;28;20262;-69
2023/04/26 07:33:34;;;;;;;3.33;1.87;;;6.60;99.90;;;;;;5108969;28;20206;-69
2023/04/26 07:36:01;;;;;;;8.20;1.90;;;6.70;99.90;;;;;;5091245;28;20298;-69
2023/04/26 07:38:28;;;;;;;5.60;1.90;;;6.70;99.90;;;;;;5088405;28;20206;-69
2023/04/26 07:40:55;;;;;;;8.50;2.00;;;6.70;99.90;;;;;;5088909;28;20211;-69
2023/04/26 07:43:24;;;;;;;6.40;1.67;;;6.70;99.90;;;;;;5088669;28;20297;-69
2023/04/26 07:45:51;;;;;;;5.37;2.00;;;6.80;99.90;;;;;;5089102;28;20294;-69
2023/04/26 07:48:18;;;;;;;6.93;2.37;;;6.80;99.90;;;;;;5088068;28;20330;-69
2023/04/26 07:50:45;;;;;;;6.30;2.20;;;7.00;99.90;;;;;;5088642;28;20272;-69
2023/04/26 07:53:12;;;;;;;6.67;1.87;;;7.10;99.90;;;;;;5088448;28;20280;-69
2023/04/26 07:55:39;;;;;;;5.53;1.60;;;7.20;99.90;;;;;;5088545;28;20677;-69
2023/04/26 07:58:06;;;;;;;10.03;2.10;;;7.20;99.90;;;;;;5103271;28;20242;-69
2023/04/26 08:00:37;;;;;;;5.33;1.70;;;7.20;99.90;;;;;;5108665;27;20210;-69
2023/04/26 08:03:04;;;;;;;8.83;2.10;;;7.20;99.90;;;;;;5108650;28;20194;-69
2023/04/26 08:05:31;;;;;;;13.17;2.87;;;7.10;99.90;;;;;;5108558;28;20217;-69
2023/04/26 08:07:59;;;;;;;11.83;2.13;;;7.00;99.90;;;;;;5108448;28;20321;-69
2023/04/26 08:10:26;;;;;;;6.23;1.83;;;7.10;99.90;;;;;;5108538;28;20238;-69
2023/04/26 08:12:55;;;;;;;4.07;1.80;;;7.20;99.90;;;;;;5108380;28;20293;-69
2023/04/26 08:15:22;;;;;;;4.70;1.80;;;7.30;99.90;;;;;;5108462;28;20286;-69
2023/04/26 08:17:52;;;;;;;3.53;2.00;;;7.20;99.90;;;;;;5108448;28;20648;-69
2023/04/26 08:20:19;;;;;;;6.17;2.00;;;7.10;99.90;;;;;;5107985;28;20206;-69
2023/04/26 08:22:46;;;;;;;3.33;1.50;;;7.10;99.90;;;;;;5107712;28;20821;-69
2023/04/26 08:25:13;;;;;;;5.33;1.53;;;7.00;99.90;;;;;;5108027;28;20209;-69
2023/04/26 08:27:40;;;;;;;2.37;1.50;;;7.10;99.90;;;;;;5108063;28;20241;-69
2023/04/26 08:30:08;;;;;;;4.50;1.60;;;7.10;99.90;;;;;;5108054;27;20210;-69
2023/04/26 08:32:35;;;;;;;2.77;1.83;;;7.20;99.90;;;;;;5087149;28;20285;-69
2023/04/26 08:35:04;;;;;;;6.70;1.80;;;7.30;99.90;;;;;;5087410;28;20203;-70
2023/04/26 08:37:31;;;;;;;4.10;1.67;;;7.40;99.90;;;;;;5087488;28;20909;-70
2023/04/26 08:39:58;;;;;;;4.63;1.60;;;7.60;99.90;;;;;;5104857;28;20263;-69
2023/04/26 08:42:28;;;;;;;3.57;1.60;;;7.60;99.90;;;;;;5108108;28;20368;-69
2023/04/26 08:44:55;;;;;;;6.17;1.90;;;7.80;99.90;;;;;;5108171;28;20206;-69
2023/04/26 08:47:30;;;;;;;4.27;1.37;;;7.80;99.90;;;;;;5108222;28;20842;-68
2023/04/26 08:50:01;;;;;;;3.47;2.00;;;7.80;99.90;;;;;;5107357;28;20279;-69
2023/04/26 08:52:31;;;;;;;3.53;1.67;;;8.10;99.90;;;;;;5107844;28;20204;-69
2023/04/26 08:55:00;;;;;;;6.87;1.70;;;8.10;99.90;;;;;;5107594;27;20217;-69
2023/04/26 08:57:27;;;;;;;4.67;1.60;;;8.10;99.90;;;;;;5097922;28;20210;-69
2023/04/26 08:59:57;;;;;;;5.97;2.23;;;7.90;99.90;;;;;;5086660;28;20618;-69
2023/04/26 09:02:24;;;;;;;4.20;1.50;;;7.80;99.90;;;;;;5087298;28;20203;-69
2023/04/26 09:04:51;;;;;;;4.80;1.70;;;7.80;99.90;;;;;;5086833;28;20570;-69
2023/04/26 09:07:21;;;;;;;6.20;1.90;;;7.80;99.90;;;;;;5087377;28;20297;-69
2023/04/26 09:09:50;;;;;;;3.70;1.50;;;7.80;99.90;;;;;;5086704;28;20718;-69
2023/04/26 09:12:20;;;;;;;3.90;1.33;;;7.80;99.90;;;;;;5086835;28;20422;-69
2023/04/26 09:14:47;;;;;;;3.87;1.80;;;7.80;99.90;;;;;;5086550;28;20937;-69
2023/04/26 09:17:27;;;;;;;4.83;1.20;;;7.80;99.90;;;;;;5086325;28;20306;-69
2023/04/26 09:19:54;;;;;;;3.07;1.33;;;7.70;99.90;;;;;;5086487;28;20619;-69
2023/04/26 09:22:31;;;;;;;1.70;1.30;;;7.70;99.90;;;;;;5089837;28;20338;-69
2023/04/26 09:25:00;;;;;;;5.13;1.40;;;7.50;99.90;;;;;;5106735;28;20956;-69
2023/04/26 09:27:34;;;;;;;5.63;1.73;;;7.50;99.90;;;;;;5113545;27;20740;-69
2023/04/26 09:30:05;;;;;;;4.47;2.07;;;7.70;99.90;;;;;;5127356;27;21055;-69
2023/04/26 09:32:52;;;;;;;9.90;1.73;;;7.90;99.90;;;;;;5127677;27;20284;-69
2023/04/26 09:35:31;;;;;;;4.50;1.60;;;8.10;99.90;;;;;;5117542;27;20556;-69
2023/04/26 09:38:00;;;;;;;5.07;1.40;;;8.40;99.90;;;;;;5107029;28;20230;-69
2023/04/26 09:40:30;;;;;;;3.10;1.23;;;8.50;99.90;;;;;;5106838;28;20206;-69
2023/04/26 09:42:58;;;;;;;3.53;1.27;;;8.50;99.90;;;;;;5107051;28;20238;-69
2023/04/26 09:45:25;;;;;;;3.33;1.60;;;8.40;99.90;;;;;;5107243;28;20300;-69
2023/04/26 09:47:52;;;;;;;2.60;1.10;;;8.40;99.90;;;;;;5106787;28;20228;-69
2023/04/26 09:50:27;;;;;;;2.57;1.30;;;8.40;99.90;;;;;;5106271;28;20237;-69
2023/04/26 09:52:54;;;;;;;4.10;1.47;;;8.40;99.90;;;;;;5106317;28;20666;-69
2023/04/26 09:55:28;;;;;;;1.77;1.27;;;8.40;99.90;;;;;;5106623;28;20217;-69
2023/04/26 09:57:57;;;;;;;4.30;1.30;;;8.40;99.90;;;;;;5093000;28;20285;-69
2023/04/26 10:00:25;;;;;;;4.13;1.57;;;8.60;99.90;;;;;;5085916;28;20206;-69
2023/04/26 10:02:53;;;;;;;1.97;1.30;;;8.80;99.90;;;;;;5086063;28;20203;-69
2023/04/26 10:05:20;;;;;;;2.60;1.60;;;9.10;99.90;;;;;;5086288;28;20202;-69
2023/04/26 10:07:48;;;;;;;7.20;3.43;;;9.50;99.90;;;;;;5086380;28;20650;-69
2023/04/26 10:10:16;;;;;;;11.43;6.17;;;9.40;99.90;;;;;;5085525;28;20265;-69
2023/04/26 10:12:45;;;;;;;4.43;1.77;;;9.20;99.90;;;;;;5086029;28;20293;-69
2023/04/26 10:15:12;;;;;;;1.33;1.20;;;9.20;99.90;;;;;;5085814;28;20218;-69
2023/04/26 10:17:39;;;;;;;5.17;1.70;;;9.00;99.90;;;;;;5086077;28;20242;-69
2023/04/26 10:20:10;;;;;;;2.90;1.30;;;8.80;99.90;;;;;;5085647;28;20306;-69
2023/04/26 10:22:44;;;;;;;4.63;1.50;;;8.70;99.90;;;;;;5086037;28;20206;-69
2023/04/26 10:25:11;;;;;;;3.40;1.60;;;8.60;99.90;;;;;;5104737;28;20300;-69
2023/04/26 10:27:50;;;;;;;1.87;1.40;;;8.50;99.90;;;;;;5096874;28;20217;-69
2023/04/26 10:30:18;;;;;;;6.30;1.73;;;8.50;99.90;;;;;;5116520;27;20397;-69
2023/04/26 10:33:16;;;;;;;4.07;1.53;;;8.50;99.90;;;;;;5106946;27;20212;-69
2023/04/26 10:36:19;;;;;;;2.27;1.67;;;8.50;99.90;;;;;;5106395;28;20301;-69
2023/04/26 10:39:20;;;;;;;4.47;1.93;;;8.50;99.90;;;;;;5106171;28;20198;-69
2023/04/26 10:41:47;;;;;;;6.33;1.90;;;8.50;99.90;;;;;;5106045;28;20253;-69
2023/04/26 10:44:41;;;;;;;4.07;1.90;;;8.50;99.90;;;;;;5105854;28;20246;-69
2023/04/26 10:47:21;;;;;;;4.57;1.63;;;8.50;99.90;;;;;;5091074;28;20647;-69
2023/04/26 10:49:48;;;;;;;5.20;2.00;;;8.50;99.90;;;;;;5085739;28;20222;-69
2023/04/26 10:52:18;;;;;;;2.03;1.07;;;8.30;99.90;;;;;;5085487;28;20317;-70
2023/04/26 10:54:51;;;;;;;4.03;2.03;;;8.30;99.90;;;;;;5085259;28;20310;-70
2023/04/26 10:57:18;;;;;;;7.50;1.90;;;8.30;99.90;;;;;;5094104;28;20969;-70
2023/04/26 11:00:19;;;;;;;3.57;2.00;;;8.40;99.90;;;;;;5116670;28;20340;-70
2023/04/26 11:03:08;;;;;;;5.03;2.20;;;8.40;99.90;;;;;;5121320;27;20208;-70
2023/04/26 11:05:50;;;;;;;3.33;1.90;;;8.50;99.90;;;;;;5126088;27;20200;-70
2023/04/26 11:08:19;;;;;;;3.07;1.57;;;8.60;99.90;;;;;;5126416;27;20567;-70
2023/04/26 11:10:51;;;;;;;3.50;2.10;;;8.70;99.90;;;;;;5125996;27;20263;-70
2023/04/26 11:13:18;;;;;;;3.70;1.90;;;8.80;99.90;;;;;;5126214;27;20201;-70
2023/04/26 11:15:47;;;;;;;2.20;1.73;;;8.90;99.90;;;;;;5126350;27;20273;-70
2023/04/26 11:18:18;;;;;;;6.03;2.03;;;8.90;99.90;;;;;;5126273;27;20215;-70
2023/04/26 11:20:45;;;;;;;4.10;1.70;;;8.90;99.90;;;;;;5112591;27;20404;-70
2023/04/26 11:23:12;;;;;;;6.70;3.07;;;8.90;99.90;;;;;;5105435;28;20301;-70
2023/04/26 11:25:40;;;;;;;7.73;3.20;;;8.90;99.90;;;;;;5105423;28;20324;-70
2023/04/26 11:28:07;;;;;;;2.67;1.87;;;8.80;99.90;;;;;;5117351;28;20300;-70
2023/04/26 11:30:34;;;;;;;3.23;2.03;;;8.70;99.90;;;;;;5108473;27;20310;-70
2023/04/26 11:33:03;;;;;;;5.00;2.43;;;8.60;99.90;;;;;;5105476;28;20301;-70
2023/04/26 11:35:34;;;;;;;4.07;1.87;;;8.60;99.90;;;;;;5105573;28;20217;-70
2023/04/26 11:38:03;;;;;;;2.50;1.90;;;8.60;99.90;;;;;;5105313;28;20198;-70
2023/04/26 11:40:35;;;;;;;4.93;1.90;;;8.60;99.90;;;;;;5108579;28;20210;-70
2023/04/26 11:43:04;;;;;;;2.63;2.30;;;8.60;99.90;;;;;;5108944;28;20252;-70
2023/04/26 11:45:32;;;;;;;5.00;2.13;;;8.70;99.90;;;;;;5109052;28;20575;-70
2023/04/26 11:48:00;;;;;;;3.23;1.50;;;8.80;99.90;;;;;;5109348;28;20214;-70
2023/04/26 11:50:29;;;;;;;4.93;1.87;;;8.90;99.90;;;;;;5108743;28;20325;-70
2023/04/26 11:52:58;;;;;;;2.67;1.57;;;9.00;99.90;;;;;;5108518;28;20230;-70
2023/04/26 11:55:29;;;;;;;3.50;1.80;;;9.10;99.90;;;;;;5109021;28;20334;-70
2023/04/26 11:57:56;;;;;;;3.07;2.00;;;9.40;99.90;;;;;;5108398;28;20840;-70
2023/04/26 12:00:24;;;;;;;4.93;1.90;;;9.60;99.90;;;;;;5125299;27;20285;-70
2023/04/26 12:02:52;;;;;;;3.57;1.80;;;9.50;99.90;;;;;;5129533;27;20273;-70
2023/04/26 12:05:26;;;;;;;3.10;1.90;;;9.50;99.90;;;;;;5129248;27;20290;-70
2023/04/26 12:07:56;;;;;;;2.43;1.80;;;9.20;99.90;;;;;;5129134;27;20197;-71
2023/04/26 12:10:26;;;;;;;2.00;1.73;;;9.10;99.90;;;;;;5128925;27;20236;-70
2023/04/26 12:12:55;;;;;;;3.17;2.20;;;9.00;99.90;;;;;;5128912;27;20648;-70
2023/04/26 12:15:28;;;;;;;4.07;1.83;;;8.90;99.90;;;;;;5127187;27;20240;-70
2023/04/26 12:17:56;;;;;;;3.47;2.33;;;8.70;99.90;;;;;;5088179;28;20699;-70
2023/04/26 12:20:27;;;;;;;3.73;2.10;;;8.60;99.90;;;;;;5088213;28;20202;-70
2023/04/26 12:23:00;;;;;;;4.30;2.50;;;8.60;99.90;;;;;;5095820;28;20293;-71
2023/04/26 12:25:27;;;;;;;2.97;2.37;;;8.60;99.90;;;;;;5088383;28;20301;-70
2023/04/26 12:27:55;;;;;;;5.67;2.43;;;8.60;99.90;;;;;;5088226;28;20215;-70
2023/04/26 12:30:22;;;;;;;6.37;2.43;;;8.80;99.90;;;;;;5103818;28;20595;-70
2023/04/26 12:32:48;;;;;;;3.90;2.10;;;9.00;99.90;;;;;;5108701;28;20210;-70
2023/04/26 12:35:16;;;;;;;3.97;1.90;;;9.20;99.90;;;;;;5108080;28;20252;-70
2023/04/26 12:37:43;;;;;;;3.80;1.93;;;9.40;99.90;;;;;;5108596;28;20206;-70
2023/04/26 12:40:12;;;;;;;2.70;1.87;;;9.70;99.90;;;;;;5107885;27;20242;-70
2023/04/26 12:42:39;;;;;;;3.53;2.07;;;9.90;99.90;;;;;;5108117;28;20656;-70
2023/04/26 12:45:07;;;;;;;2.90;2.00;;;10.00;99.90;;;;;;5107598;28;20272;-70
2023/04/26 12:47:34;;;;;;;2.50;1.93;;;10.10;99.90;;;;;;5108032;28;20759;-70
2023/04/26 12:50:01;;;;;;;2.67;2.00;;;10.20;99.90;;;;;;5107534;28;20325;-70
2023/04/26 12:52:29;;;;;;;4.23;2.33;;;10.30;99.90;;;;;;5107194;28;20226;-70
2023/04/26 12:54:56;;;;;;;4.60;1.93;;;10.30;99.90;;;;;;5107844;28;20247;-70
2023/04/26 12:57:24;;;;;;;3.77;2.00;;;10.30;99.90;;;;;;5098664;28;20752;-70
2023/04/26 12:59:51;;;;;;;4.73;2.00;;;10.30;99.90;;;;;;5099460;28;20214;-71
2023/04/26 13:02:18;;;;;;;2.63;1.90;;;10.20;99.90;;;;;;5107983;28;20838;-70